Meteo Giornale » Osservazioni meteo Italia » Capo Mele

ore: 16:55 - Osservazioni Meteo Capo Mele
Lat. 43° 57' N Lon. 8° 10' E Alt. 220 metri s.l.m.

poco_nuvoloso Europe/Rome

28 °C

Poco Nuvoloso

Temp. 24 Ore

24 °C

30 °C

Sud-Ovest

11.1 Km/h

Dew point 17 °C

Umidità 51 %

Visibilità  10 Km

Il sole sorge alle ore 06:31

Il sole tramonta alle ore 20:31

Data e Ora Cielo e Fenomeni T °C DP °C Um. % Pres. hPa Vis. km Vento km/h
Oggi h: 16:55 poco_nuvoloso Poco Nuvoloso 28 17 51 1015 10 SO 11.1
Oggi h: 15:55 poco_nuvoloso Poco Nuvoloso 27 17 54 1016 10 SO 11.1
Oggi h: 14:55 poco_nuvoloso Poco Nuvoloso 29 18 51 1016 10 SO 11.1
Oggi h: 13:55 poco_nuvoloso Poco Nuvoloso 28 18 54 1017 10 N/NE 9.3
Oggi h: 12:55 poco_nuvoloso Poco Nuvoloso 30 15 40 1017 10 N/NE 7.4
Oggi h: 11:55 sereno Sereno 30 14 37 1017 10 N/NE 9.3
Oggi h: 10:55 sereno Sereno 30 14 37 1017 10 N/NE 7.4
Oggi h: 09:55 sereno Sereno 28 14 42 1017 10 N/NE 7.4
Oggi h: 08:55 sereno Sereno 26 13 44 1017 10 N 5.5
Oggi h: 07:55 sereno Sereno 24 12 47 1016 10 N 5.5
Oggi h: 06:55 sereno Sereno 24 11 43 1016 10 N 5.5
Oggi h: 05:55 sereno Sereno 24 12 47 1017 10 N 5.5
Oggi h: 04:55 sereno Sereno 24 12 47 1017 10 N 5.5
Oggi h: 03:55 sereno Sereno 24 13 50 1017 10 N 5.5
Oggi h: 02:55 sereno Sereno 25 13 47 1017 10 SO 7.4
Oggi h: 01:55 sereno Sereno 25 14 50 1017 10 N 5.5
Oggi h: 00:55 sereno Sereno 25 14 50 1017 10 N 5.5
Ieri h: 23:55 sereno Sereno 25 15 53 1016 10 NE 7.4
Ieri h: 21:55 sereno Sereno 26 14 47 1016 10 NE 9.3
Ieri h: 20:55 sereno Sereno 26 15 50 1016 10 N/NE 9.3
Ieri h: 19:55 sereno Sereno 29 17 48 1015 10 N 0
Ieri h: 18:55 sereno Sereno 29 15 42 1015 10 N 3.7
Ieri h: 17:55 poco_nuvoloso Poco Nuvoloso 30 16 42 1015 10 NE 13